Time;durP1;ratioP1;P1;durP2;ratioP2;P2;SDS_P1;SDS_P2;PMS_P1;PMS_P2;Temp;Humidity;BMP_temperature;BMP_pressure;BME280_temperature;BME280_humidity;BME280_pressure;Samples;Min_cycle;Max_cycle;Signal;HPM_P1;HPM_P2
2022/07/31 00:04:43;;;;;;;27.38;10.57;;;;;;;21.76;60.81;99647.88;10501125;28;20487;-68
2022/07/31 00:09:44;;;;;;;29.17;10.93;;;;;;;22.14;61.50;99704.66;10500366;28;20033;-68
2022/07/31 00:14:45;;;;;;;15.90;10.05;;;;;;;22.04;62.27;99718.94;10501038;28;20631;-68
2022/07/31 00:19:46;;;;;;;12.98;9.73;;;;;;;21.94;63.09;99719.66;10499022;28;20049;-68
2022/07/31 00:24:47;;;;;;;11.90;9.98;;;;;;;21.52;63.45;99673.63;10500075;28;20052;-68
2022/07/31 00:29:48;;;;;;;13.20;10.45;;;;;;;21.27;63.73;99647.97;10499758;28;20419;-68
2022/07/31 00:34:49;;;;;;;12.77;10.82;;;;;;;21.54;64.18;99723.66;10500094;28;20385;-68
2022/07/31 00:39:50;;;;;;;18.27;11.35;;;;;;;20.88;64.87;99652.66;10498804;28;20041;-69
2022/07/31 00:44:51;;;;;;;20.10;11.50;;;;;;;20.96;66.29;99687.31;10499128;28;20067;-68
2022/07/31 00:49:52;;;;;;;17.42;10.88;;;;;;;21.28;66.53;99732.53;10494983;28;20044;-68
2022/07/31 00:54:53;;;;;;;14.48;10.32;;;;;;;21.07;66.75;99699.06;10499180;28;20392;-68
2022/07/31 00:59:54;;;;;;;23.98;12.10;;;;;;;20.56;67.00;99661.47;10498942;28;20040;-69
2022/07/31 01:04:55;;;;;;;16.00;11.57;;;;;;;20.88;68.00;99721.00;10498366;28;20048;-68
2022/07/31 01:09:57;;;;;;;66.93;14.50;;;;;;;20.26;68.34;99641.09;10499110;28;20440;-68
2022/07/31 01:15:04;;;;;;;70.70;14.68;;;;;;;20.64;69.99;99733.06;10498463;28;20056;-69
2022/07/31 01:20:05;;;;;;;28.15;12.85;;;;;;;20.45;69.88;99727.91;10496483;28;20043;-69
2022/07/31 01:25:15;;;;;;;76.53;15.00;;;;;;;20.39;71.65;99737.00;10497324;28;20079;-69
2022/07/31 01:30:17;;;;;;;42.42;13.15;;;;;;;20.32;71.02;99738.25;10497998;28;20060;-69
2022/07/31 01:35:25;;;;;;;62.58;13.55;;;;;;;20.19;72.52;99723.22;10497921;28;20450;-68
2022/07/31 01:40:34;;;;;;;49.17;13.13;;;;;;;20.08;72.85;99740.31;10496711;28;20385;-69
2022/07/31 01:45:38;;;;;;;18.45;12.40;;;;;;;20.06;71.40;99732.47;10497100;28;20442;-68
2022/07/31 01:50:41;;;;;;;93.47;16.15;;;;;;;20.06;71.97;99735.97;10496337;28;20544;-69
2022/07/31 01:55:44;;;;;;;141.73;19.67;;;;;;;19.01;72.49;99594.59;10496351;28;20377;-69
2022/07/31 02:00:47;;;;;;;26.60;12.00;;;;;;;19.78;72.95;99733.34;10496486;28;20036;-70
2022/07/31 02:05:48;;;;;;;208.95;22.52;;;;;;;18.84;73.63;99589.16;10495312;28;20048;-69
2022/07/31 02:10:51;;;;;;;24.83;11.80;;;;;;;19.79;74.23;99737.66;10530062;28;20142;-68
2022/07/31 02:15:55;;;;;;;24.65;12.27;;;;;;;19.86;75.34;99732.13;10505240;28;20064;-69
2022/07/31 02:20:56;;;;;;;17.20;11.80;;;;;;;19.93;74.45;99733.59;10495661;28;20500;-69
2022/07/31 02:25:58;;;;;;;56.45;14.45;;;;;;;19.86;73.89;99708.66;10495791;28;20055;-68
2022/07/31 02:31:00;;;;;;;38.42;13.50;;;;;;;20.10;74.01;99722.00;10495108;28;20068;-69
2022/07/31 02:36:02;;;;;;;20.92;13.15;;;;;;;20.15;74.69;99738.25;10496339;28;20609;-69
2022/07/31 02:41:04;;;;;;;50.05;14.18;;;;;;;19.83;74.79;99650.72;10495527;28;20040;-69
2022/07/31 02:46:07;;;;;;;25.65;12.68;;;;;;;20.83;74.09;99736.31;10495727;28;20381;-69
2022/07/31 02:51:08;;;;;;;19.98;11.82;;;;;;;21.08;73.58;99712.31;10495885;28;20058;-69
2022/07/31 02:56:10;;;;;;;20.67;12.10;;;;;;;21.57;73.16;99735.84;10496013;28;20037;-69
2022/07/31 03:01:13;;;;;;;18.30;11.52;;;;;;;21.99;71.94;99725.13;10497793;28;20076;-69
2022/07/31 03:06:15;;;;;;;22.73;11.25;;;;;;;22.65;70.70;99746.44;10502897;28;20044;-69
2022/07/31 03:11:16;;;;;;;14.23;10.85;;;;;;;23.57;68.66;99733.28;10503602;28;20044;-70
2022/07/31 03:16:17;;;;;;;24.38;10.90;;;;;;;24.88;64.53;99729.09;10540164;28;20052;-69
2022/07/31 03:21:19;;;;;;;14.88;9.57;;;;;;;25.92;60.30;99713.56;10523217;28;20040;-69
2022/07/31 03:26:20;;;;;;;13.52;10.20;;;;;;;26.91;56.82;99711.50;10502010;28;20053;-70
2022/07/31 03:31:21;;;;;;;13.32;10.55;;;;;;;28.28;53.63;99732.41;10502030;28;20124;-70
2022/07/31 03:36:22;;;;;;;15.68;11.45;;;;;;;29.32;50.35;99744.59;10501564;28;20414;-69
2022/07/31 03:41:23;;;;;;;13.98;10.85;;;;;;;29.51;47.89;99622.09;10501274;28;20055;-69
2022/07/31 03:46:24;;;;;;;11.98;10.82;;;;;;;30.24;46.35;99610.94;10529582;28;20040;-70
2022/07/31 03:51:25;;;;;;;15.63;10.00;;;;;;;31.64;44.17;99733.50;10540512;28;20052;-70
2022/07/31 03:56:27;;;;;;;14.98;9.23;;;;;;;31.61;42.96;99665.50;10539485;28;20060;-70
2022/07/31 04:01:29;;;;;;;11.07;9.23;;;;;;;32.04;42.37;99670.16;10508823;28;20128;-70
2022/07/31 04:06:30;;;;;;;28.05;9.02;;;;;;;32.87;41.41;99726.56;10501189;28;20140;-70
2022/07/31 04:11:31;;;;;;;12.10;9.00;;;;;;;33.35;40.65;99734.38;10499601;28;20124;-70
2022/07/31 04:16:32;;;;;;;14.75;8.18;;;;;;;33.15;39.83;99663.63;10500915;28;20052;-71
2022/07/31 04:21:33;;;;;;;9.95;8.60;;;;;;;33.70;39.15;99727.81;10500292;28;20047;-70
2022/07/31 04:26:34;;;;;;;10.30;8.38;;;;;;;33.95;38.39;99739.72;10493213;28;20230;-70
2022/07/31 04:31:34;;;;;;;16.45;8.93;;;;;;;34.01;38.64;99724.56;10499707;28;20041;-69
2022/07/31 04:36:36;;;;;;;17.20;8.88;;;;;;;33.39;38.75;99704.25;10499878;28;20094;-69
2022/07/31 04:41:38;;;;;;;9.77;7.53;;;;;;;33.96;38.08;99746.84;10500235;28;20044;-70
2022/07/31 04:46:39;;;;;;;10.45;6.90;;;;;;;34.20;37.25;99738.69;10498950;28;20105;-70
2022/07/31 04:51:41;;;;;;;10.13;7.15;;;;;;;34.30;37.34;99740.19;10481457;28;20089;-69
2022/07/31 04:56:42;;;;;;;9.90;7.00;;;;;;;34.42;36.34;99728.38;10498730;28;20036;-70
2022/07/31 05:01:44;;;;;;;9.10;6.50;;;;;;;34.33;35.53;99739.50;10481186;28;20037;-69
2022/07/31 05:06:48;;;;;;;7.60;6.15;;;;;;;33.84;36.09;99740.16;10500673;28;20079;-69
2022/07/31 05:11:50;;;;;;;12.35;5.55;;;;;;;33.28;35.97;99683.75;10527728;28;20108;-69
2022/07/31 05:16:51;;;;;;;33.28;6.80;;;;;;;33.29;36.26;99732.16;10539410;28;20052;-69
2022/07/31 05:21:52;;;;;;;24.17;6.13;;;;;;;32.73;36.40;99722.13;10539477;28;20157;-70
2022/07/31 05:26:52;;;;;;;9.73;3.10;;;;;;;32.63;33.60;99740.94;10539572;28;20043;-70
2022/07/31 05:31:54;;;;;;;3.97;2.30;;;;;;;32.49;33.28;99736.47;10539008;28;20044;-70
2022/07/31 05:36:55;;;;;;;5.67;2.20;;;;;;;32.17;32.63;99663.63;10539633;28;20399;-71
2022/07/31 05:41:56;;;;;;;5.45;2.28;;;;;;;32.41;31.15;99717.22;10538476;28;20289;-70
2022/07/31 05:46:58;;;;;;;10.77;2.80;;;;;;;31.99;31.74;99654.63;10539390;28;20036;-70
2022/07/31 05:51:59;;;;;;;3.25;2.08;;;;;;;32.36;31.02;99709.16;10538236;28;20040;-72
2022/07/31 05:56:59;;;;;;;16.15;2.40;;;;;;;32.55;31.78;99722.50;10538802;28;20206;-71
2022/07/31 06:02:00;;;;;;;8.45;2.30;;;;;;;32.53;30.76;99713.81;10538519;28;20557;-71
2022/07/31 06:07:01;;;;;;;62.40;4.43;;;;;;;32.42;31.82;99699.59;10538606;28;20040;-72
2022/07/31 06:12:02;;;;;;;8.35;3.50;;;;;;;32.71;31.78;99705.13;10537962;28;20396;-71
2022/07/31 06:17:06;;;;;;;9.25;3.22;;;;;;;32.87;30.87;99710.06;10538136;28;20046;-71
2022/07/31 06:22:07;;;;;;;12.70;3.60;;;;;;;32.84;31.98;99686.78;10519753;28;20048;-71
2022/07/31 06:27:08;;;;;;;7.15;3.55;;;;;;;33.01;32.58;99698.84;10537675;28;20044;-72
2022/07/31 06:32:09;;;;;;;11.60;4.15;;;;;;;33.09;33.18;99709.81;10537570;28;20070;-70
2022/07/31 06:37:09;;;;;;;7.70;4.10;;;;;;;32.82;33.13;99630.47;10536473;28;20131;-71
2022/07/31 06:42:10;;;;;;;10.50;4.68;;;;;;;33.39;32.66;99691.28;10537908;28;20040;-70
2022/07/31 06:47:11;;;;;;;9.10;4.88;;;;;;;33.02;32.58;99623.41;10537371;28;20039;-71
2022/07/31 06:52:12;;;;;;;17.10;6.15;;;;;;;33.14;32.53;99627.03;10537049;28;20032;-71
2022/07/31 06:57:13;;;;;;;16.08;6.78;;;;;;;33.72;33.14;99689.72;10536557;28;20403;-70
2022/07/31 07:02:14;;;;;;;23.38;6.45;;;;;;;34.01;32.77;99688.75;10537027;28;20492;-73
2022/07/31 07:07:15;;;;;;;9.98;5.95;;;;;;;34.06;33.15;99680.31;10514962;28;20049;-71
2022/07/31 07:12:15;;;;;;;16.25;5.90;;;;;;;34.01;32.94;99659.25;10523981;28;20185;-71
2022/07/31 07:17:16;;;;;;;8.48;6.13;;;;;;;33.96;33.49;99681.53;10530552;28;20048;-70
2022/07/31 07:22:18;;;;;;;9.10;6.20;;;;;;;33.79;33.88;99663.22;10516374;28;20055;-71
2022/07/31 07:27:19;;;;;;;18.57;6.27;;;;;;;34.16;33.99;99674.34;10527836;28;20037;-71
2022/07/31 07:32:20;;;;;;;10.65;6.10;;;;;;;33.92;32.94;99633.75;10494959;28;20047;-71
2022/07/31 07:37:21;;;;;;;15.82;5.85;;;;;;;34.20;33.07;99669.78;10494803;28;20041;-71
2022/07/31 07:42:22;;;;;;;19.23;5.33;;;;;;;34.10;32.66;99656.41;10493944;28;20419;-72
2022/07/31 07:47:23;;;;;;;9.50;5.22;;;;;;;33.86;33.05;99618.56;10495045;28;20040;-71
2022/07/31 07:52:23;;;;;;;10.40;5.68;;;;;;;33.79;33.42;99588.03;10499862;28;20115;-72
2022/07/31 07:57:25;;;;;;;8.23;5.60;;;;;;;34.48;33.24;99663.56;10502534;28;20071;-71
2022/07/31 08:02:26;;;;;;;10.97;5.30;;;;;;;34.65;33.35;99662.56;10501207;28;20106;-72
2022/07/31 08:07:33;;;;;;;7.05;4.60;;;;;;;34.73;32.74;99659.69;10501257;28;20052;-71
2022/07/31 08:12:34;;;;;;;9.63;4.70;;;;;;;34.80;32.86;99647.25;10495194;28;20061;-71
2022/07/31 08:17:35;;;;;;;8.57;4.30;;;;;;;34.87;32.47;99637.22;10459153;28;20044;-71
2022/07/31 08:22:36;;;;;;;9.57;4.22;;;;;;;34.74;32.04;99616.34;10458928;28;20427;-71
2022/07/31 08:27:37;;;;;;;16.55;4.57;;;;;;;34.73;31.91;99634.03;10457071;28;20033;-72
2022/07/31 08:32:38;;;;;;;12.38;4.20;;;;;;;34.93;31.77;99644.13;10458167;28;20076;-72
2022/07/31 08:37:42;;;;;;;8.07;3.60;;;;;;;34.96;30.71;99635.13;10457903;28;20037;-71
2022/07/31 08:42:45;;;;;;;5.38;3.70;;;;;;;34.59;30.91;99581.22;10476380;28;21500;-75
2022/07/31 08:47:47;;;;;;;6.00;3.25;;;;;;;34.90;31.26;99613.66;10492055;28;20048;-72
2022/07/31 08:52:49;;;;;;;8.10;3.85;;;;;;;35.08;30.53;99612.25;10495736;28;20032;-73
2022/07/31 08:57:50;;;;;;;6.50;3.77;;;;;;;34.93;30.62;99536.50;10493847;28;20118;-74
2022/07/31 09:02:53;;;;;;;5.30;4.10;;;;;;;35.59;30.52;99604.22;10494272;28;20044;-72
2022/07/31 09:07:54;;;;;;;18.00;5.28;;;;;;;35.68;31.20;99595.75;10493581;28;20032;-74
2022/07/31 09:12:55;;;;;;;7.90;4.07;;;;;;;35.74;30.24;99597.09;10484682;28;20062;-72
2022/07/31 09:17:57;;;;;;;9.20;5.15;;;;;;;35.83;29.82;99616.28;10544528;28;20372;-71
2022/07/31 09:23:06;;;;;;;17.10;5.33;;;;;;;35.84;30.28;99607.66;10539995;28;20079;-74
2022/07/31 09:28:07;;;;;;;12.18;9.07;;;;;;;35.92;30.44;99591.25;10539960;28;20503;-73
2022/07/31 09:33:12;;;;;;;20.58;9.10;;;;;;;35.65;29.01;99546.75;10540093;28;20035;-74
2022/07/31 09:38:14;;;;;;;14.65;6.07;;;;;;;35.76;30.20;99567.16;10521156;28;20043;-73
2022/07/31 09:43:18;;;;;;;7.85;4.20;;;;;;;35.94;29.80;99589.72;10538529;28;20066;-74
2022/07/31 09:48:18;;;;;;;17.65;4.57;;;;;;;35.99;30.20;99577.59;10538988;28;20050;-72
2022/07/31 09:53:19;;;;;;;9.13;4.47;;;;;;;35.57;29.49;99498.00;10522829;28;20468;-74
2022/07/31 09:58:22;;;;;;;9.07;4.45;;;;;;;35.60;29.63;99494.53;10505505;28;20043;-74
2022/07/31 10:03:24;;;;;;;11.35;5.00;;;;;;;36.15;30.11;99566.56;10527037;28;20512;-70
2022/07/31 10:08:27;;;;;;;6.57;4.93;;;;;;;35.98;29.88;99545.59;10530798;28;20135;-71
2022/07/31 10:13:28;;;;;;;;;;;;;;;36.25;29.20;99555.72;10496588;28;20411;-71
2022/07/31 10:18:33;;;;;;;10.45;4.57;;;;;;;36.04;29.54;99549.72;10496048;28;20014;-73
2022/07/31 10:23:40;;;;;;;9.32;5.43;;;;;;;35.94;28.89;99537.22;10494905;28;20040;-73
2022/07/31 10:28:41;;;;;;;13.73;5.13;;;;;;;35.84;29.21;99483.28;10496453;28;20036;-73
2022/07/31 10:33:44;;;;;;;11.02;4.70;;;;;;;36.20;28.49;99552.44;10496752;28;20095;-78
2022/07/31 10:38:54;;;;;;;7.82;4.82;;;;;;;35.81;29.09;99453.63;10495338;28;20102;-74
2022/07/31 10:43:59;;;;;;;12.30;5.57;;;;;;;36.60;28.76;99543.91;10495741;28;20059;-75
2022/07/31 10:49:00;;;;;;;17.92;5.15;;;;;;;36.17;28.85;99445.34;10495308;28;20106;-73
2022/07/31 10:54:06;;;;;;;19.60;5.45;;;;;;;36.68;28.20;99534.59;10495624;28;20079;-73
2022/07/31 10:59:07;;;;;;;10.90;5.15;;;;;;;36.20;27.90;99469.50;10494634;28;20442;-73
2022/07/31 11:04:08;;;;;;;10.82;5.78;;;;;;;35.75;28.91;99385.97;10494648;28;20040;-74
2022/07/31 11:09:20;;;;;;;13.65;5.95;;;;;;;36.00;29.21;99510.91;10495332;28;20120;-74
2022/07/31 11:14:38;;;;;;;9.90;5.38;;;;;;;35.73;29.12;99451.03;10494898;28;20525;-71
2022/07/31 11:19:41;;;;;;;10.35;5.50;;;;;;;35.14;29.50;99442.47;10495185;28;20040;-73
2022/07/31 11:24:53;;;;;;;19.25;6.38;;;;;;;35.83;29.61;99505.75;10542580;28;20098;-73
2022/07/31 11:29:53;;;;;;;24.33;6.25;;;;;;;36.01;29.99;99503.41;10545194;28;20078;-74
2022/07/31 11:34:56;;;;;;;9.23;5.25;;;;;;;35.81;28.82;99431.50;10544237;28;20473;-73
2022/07/31 11:39:58;;;;;;;7.57;4.78;;;;;;;35.88;28.34;99439.16;10544734;28;20086;-72
2022/07/31 11:45:03;;;;;;;6.32;4.47;;;;;;;36.40;28.59;99506.28;10543601;28;20119;-72
2022/07/31 11:50:05;;;;;;;8.52;5.07;;;;;;;35.88;28.27;99495.22;10541679;28;20513;-72
2022/07/31 11:55:07;;;;;;;14.33;5.43;;;;;;;35.48;29.17;99440.16;10560861;28;20051;-73
2022/07/31 12:00:15;;;;;;;8.68;4.95;;;;;;;36.05;28.20;99463.66;10558071;28;20104;-73
2022/07/31 12:05:16;;;;;;;13.48;4.97;;;;;;;36.11;28.07;99406.94;10555475;28;20039;-72
2022/07/31 12:10:16;;;;;;;11.07;4.78;;;;;;;36.54;28.07;99473.44;10558349;28;20085;-74
2022/07/31 12:15:19;;;;;;;11.07;5.35;;;;;;;36.12;27.80;99457.50;10517464;28;20055;-72
2022/07/31 12:20:20;;;;;;;14.98;5.55;;;;;;;35.80;28.30;99412.50;10495267;28;20576;-72
2022/07/31 12:25:21;;;;;;;9.75;5.30;;;;;;;35.94;28.26;99417.56;10495173;28;20102;-72
2022/07/31 12:30:25;;;;;;;17.05;5.88;;;;;;;35.85;28.51;99390.13;10495478;28;20036;-71
2022/07/31 12:35:42;;;;;;;11.73;5.22;;;;;;;36.53;28.54;99474.59;10491590;28;20089;-71
2022/07/31 12:40:47;;;;;;;12.57;4.75;;;;;;;36.18;28.47;99388.91;10494225;28;20044;-72
2022/07/31 12:45:51;;;;;;;9.65;5.15;;;;;;;36.43;28.01;99467.63;10494421;28;20043;-71
2022/07/31 12:50:52;;;;;;;10.73;5.25;;;;;;;36.22;28.54;99454.16;10494070;28;20039;-72
2022/07/31 12:55:53;;;;;;;6.72;4.82;;;;;;;35.21;28.94;99332.22;10495338;28;20519;-72
2022/07/31 13:00:55;;;;;;;11.32;4.57;;;;;;;35.95;28.91;99455.88;10494539;28;20056;-72
2022/07/31 13:05:56;;;;;;;8.05;5.20;;;;;;;35.95;28.84;99468.91;10494142;28;20047;-75
2022/07/31 13:10:57;;;;;;;10.93;5.10;;;;;;;35.94;28.92;99450.75;10494368;28;20395;-73
2022/07/31 13:15:58;;;;;;;7.30;4.50;;;;;;;35.68;28.84;99430.00;10539784;28;20051;-71
2022/07/31 13:20:59;;;;;;;9.63;5.00;;;;;;;35.31;29.40;99448.81;10553730;28;20044;-73
2022/07/31 13:26:00;;;;;;;7.23;4.73;;;;;;;35.76;29.62;99464.94;10548586;28;20093;-73
2022/07/31 13:31:01;;;;;;;7.13;4.72;;;;;;;35.50;29.35;99448.09;10529874;28;20093;-72
2022/07/31 13:36:02;;;;;;;16.90;5.15;;;;;;;34.60;30.48;99395.25;10530660;28;20085;-74
2022/07/31 13:41:22;;;;;;;13.57;4.72;;;;;;;34.62;30.50;99456.41;10530561;28;20118;-72
2022/07/31 13:46:24;;;;;;;12.60;5.37;;;;;;;33.87;30.55;99377.78;10531810;28;20055;-73
2022/07/31 13:51:25;;;;;;;7.53;5.00;;;;;;;34.89;30.23;99474.91;10540732;28;20122;-73
2022/07/31 13:56:26;;;;;;;7.45;5.10;;;;;;;34.98;30.33;99449.91;10553798;28;20039;-76
2022/07/31 14:01:27;;;;;;;11.65;4.90;;;;;;;35.18;29.97;99470.16;10552461;28;20035;-73
2022/07/31 14:06:28;;;;;;;10.73;4.80;;;;;;;35.10;30.25;99466.41;10554024;28;20105;-74
2022/07/31 14:11:29;;;;;;;14.63;5.60;;;;;;;34.59;30.66;99459.84;10552513;28;20398;-73
2022/07/31 14:16:30;;;;;;;12.27;5.10;;;;;;;34.11;31.18;99422.97;10555002;28;20056;-73
2022/07/31 14:21:31;;;;;;;9.07;4.55;;;;;;;34.31;31.39;99438.53;10537470;28;20403;-74
2022/07/31 14:26:33;;;;;;;;;;;;;;;34.65;30.23;99469.50;10541184;28;20118;-73
2022/07/31 14:31:34;;;;;;;6.55;3.88;;;;;;;34.21;30.85;99397.69;10533792;28;20303;-73
2022/07/31 14:36:34;;;;;;;4.97;3.72;;;;;;;34.48;30.36;99431.94;10543622;28;20607;-74
2022/07/31 14:41:35;;;;;;;12.85;3.63;;;;;;;34.65;30.80;99470.28;10554916;28;20487;-72
2022/07/31 14:46:36;;;;;;;13.95;3.45;;;;;;;34.22;30.63;99405.59;10552077;28;20539;-73
2022/07/31 14:51:37;;;;;;;36.75;5.20;;;;;;;34.44;31.23;99470.44;10526681;28;20054;-73
2022/07/31 14:56:38;;;;;;;25.00;4.05;;;;;;;33.75;31.01;99402.59;10553779;28;20043;-72
2022/07/31 15:01:39;;;;;;;12.40;3.70;;;;;;;34.15;30.65;99457.75;10557173;28;20036;-72
2022/07/31 15:06:40;;;;;;;10.27;3.20;;;;;;;34.03;30.49;99432.97;10550638;28;20428;-75
2022/07/31 15:11:40;;;;;;;17.73;3.20;;;;;;;34.26;30.37;99463.59;10543775;28;20558;-73
2022/07/31 15:16:41;;;;;;;19.40;4.68;;;;;;;34.17;30.74;99476.72;10545067;28;20416;-76
2022/07/31 15:21:45;;;;;;;29.67;5.88;;;;;;;33.90;31.97;99489.22;10543905;28;20128;-72
2022/07/31 15:26:47;;;;;;;24.48;6.18;;;;;;;33.65;32.34;99480.94;10544293;28;20046;-72
2022/07/31 15:31:48;;;;;;;19.10;4.93;;;;;;;32.50;32.79;99346.88;10544140;28;20032;-70
2022/07/31 15:36:49;;;;;;;26.45;7.07;;;;;;;32.72;33.31;99420.72;10543754;28;20040;-72
2022/07/31 15:41:51;;;;;;;31.33;6.88;;;;;;;32.97;34.13;99486.84;10542510;28;20040;-73
2022/07/31 15:46:52;;;;;;;17.58;6.18;;;;;;;32.74;34.14;99464.41;10543194;28;20514;-72
2022/07/31 15:51:53;;;;;;;20.42;5.93;;;;;;;32.14;34.21;99399.72;10543286;28;20036;-72
2022/07/31 15:56:54;;;;;;;39.72;6.82;;;;;;;32.58;34.70;99490.91;10543187;28;20039;-73
2022/07/31 16:01:54;;;;;;;24.58;6.63;;;;;;;32.38;35.09;99487.00;10542830;28;20040;-72
2022/07/31 16:06:55;;;;;;;17.48;6.07;;;;;;;32.18;35.56;99488.56;10525198;28;20053;-69
2022/07/31 16:11:56;;;;;;;16.88;5.72;;;;;;;32.15;35.75;99516.72;10540527;28;20071;-70
2022/07/31 16:16:57;;;;;;;30.30;6.78;;;;;;;31.92;35.74;99505.19;10548354;28;20134;-70
2022/07/31 16:21:58;;;;;;;27.05;6.30;;;;;;;31.86;35.99;99523.81;10549940;28;20414;-69
2022/07/31 16:26:59;;;;;;;23.83;6.18;;;;;;;31.67;36.00;99524.19;10552290;28;20051;-69
2022/07/31 16:31:59;;;;;;;27.88;6.30;;;;;;;31.16;35.46;99449.91;10543015;28;20047;-70
2022/07/31 16:37:00;;;;;;;22.00;5.78;;;;;;;31.54;35.59;99534.25;10541432;28;20134;-69
2022/07/31 16:42:01;;;;;;;28.45;10.35;;;;;;;31.42;35.64;99542.34;10542492;28;20050;-69
2022/07/31 16:47:02;;;;;;;38.40;9.40;;;;;;;31.21;35.69;99533.19;10541530;28;20036;-69
2022/07/31 16:52:06;;;;;;;21.85;7.40;;;;;;;30.64;36.19;99479.31;10535064;28;20055;-70
2022/07/31 16:57:07;;;;;;;19.60;5.95;;;;;;;30.84;36.26;99528.06;10525634;28;20039;-69
2022/07/31 17:02:08;;;;;;;12.68;5.07;;;;;;;30.92;36.36;99556.59;10536009;28;20097;-69
2022/07/31 17:07:10;;;;;;;12.68;5.20;;;;;;;30.81;37.14;99564.34;10519596;28;20130;-69
2022/07/31 17:12:11;;;;;;;13.65;4.55;;;;;;;30.69;37.55;99564.13;10533433;28;20032;-70
2022/07/31 17:17:12;;;;;;;16.35;5.10;;;;;;;30.55;38.05;99560.75;10534041;28;20479;-70
2022/07/31 17:22:13;;;;;;;15.27;4.88;;;;;;;30.36;38.49;99555.53;10532171;28;20072;-70
2022/07/31 17:27:14;;;;;;;14.13;5.38;;;;;;;29.84;38.49;99501.38;10533085;28;20115;-69
2022/07/31 17:32:16;;;;;;;20.52;5.72;;;;;;;29.90;38.77;99540.38;10532691;28;20039;-69
2022/07/31 17:37:17;;;;;;;12.07;5.00;;;;;;;29.56;38.78;99517.97;10532532;28;20039;-70
2022/07/31 17:42:18;;;;;;;17.17;5.70;;;;;;;29.84;39.03;99591.72;10534618;28;20043;-69
2022/07/31 17:47:19;;;;;;;23.10;5.20;;;;;;;29.60;39.20;99566.63;10539845;28;20537;-69
2022/07/31 17:52:20;;;;;;;18.50;6.05;;;;;;;29.54;39.87;99580.44;10538600;28;20039;-69
2022/07/31 17:57:21;;;;;;;10.45;5.68;;;;;;;29.22;40.00;99553.34;10533878;28;20032;-70
2022/07/31 18:02:22;;;;;;;13.45;5.20;;;;;;;29.43;40.29;99603.69;10553066;28;20046;-69
2022/07/31 18:07:24;;;;;;;14.80;5.63;;;;;;;29.42;40.20;99614.97;10553258;28;20032;-70
2022/07/31 18:12:25;;;;;;;17.60;6.53;;;;;;;29.06;40.66;99583.00;10554163;28;20044;-69
2022/07/31 18:17:29;;;;;;;13.15;6.18;;;;;;;29.08;40.95;99605.38;10554093;28;20032;-69
2022/07/31 18:22:30;;;;;;;12.93;6.28;;;;;;;28.58;41.92;99551.50;10549034;28;20081;-70
2022/07/31 18:27:31;;;;;;;17.20;6.85;;;;;;;28.45;42.36;99552.34;10553115;28;20032;-69
2022/07/31 18:32:32;;;;;;;22.05;6.68;;;;;;;28.61;42.96;99604.75;10553147;28;20067;-69
2022/07/31 18:37:33;;;;;;;12.65;7.35;;;;;;;28.49;43.30;99613.47;10527395;28;20482;-70
2022/07/31 18:42:33;;;;;;;24.83;7.70;;;;;;;28.17;43.94;99568.72;10548646;28;20051;-69
2022/07/31 18:47:35;;;;;;;18.85;6.68;;;;;;;27.90;44.09;99535.97;10536783;28;20048;-69
2022/07/31 18:52:36;;;;;;;23.20;6.82;;;;;;;27.77;44.46;99530.16;10537202;28;20062;-69
2022/07/31 18:57:37;;;;;;;15.82;7.10;;;;;;;27.29;45.08;99472.41;10536609;28;20050;-69
2022/07/31 19:02:38;;;;;;;14.45;7.60;;;;;;;28.04;45.71;99604.22;10534843;28;20128;-69
2022/07/31 19:07:38;;;;;;;31.67;7.90;;;;;;;28.02;45.85;99606.44;10536246;28;20072;-69
2022/07/31 19:12:39;;;;;;;30.98;8.25;;;;;;;27.92;46.35;99597.34;10537247;28;20052;-69
2022/07/31 19:17:43;;;;;;;16.35;8.23;;;;;;;27.34;47.06;99515.13;10537356;28;20475;-69
2022/07/31 19:22:43;;;;;;;18.02;8.38;;;;;;;27.77;47.07;99592.94;10536978;28;20047;-69
2022/07/31 19:27:44;;;;;;;19.63;9.27;;;;;;;27.19;47.57;99505.28;10537317;28;20047;-69
2022/07/31 19:32:45;;;;;;;20.40;8.57;;;;;;;27.69;48.05;99588.16;10537295;28;20063;-69
2022/07/31 19:38:00;;;;;;;19.58;8.68;;;;;;;27.62;49.46;99606.84;10535999;28;20068;-69
2022/07/31 19:43:01;;;;;;;18.90;9.73;;;;;;;27.41;48.88;99583.75;10541355;28;20079;-69
2022/07/31 19:48:02;;;;;;;11.98;8.90;;;;;;;27.32;49.61;99586.34;10538610;28;20071;-69
2022/07/31 19:53:03;;;;;;;22.67;9.98;;;;;;;26.71;49.96;99521.81;10541149;28;20039;-67
2022/07/31 19:58:04;;;;;;;17.88;10.10;;;;;;;26.98;50.52;99578.38;10542997;28;20043;-67
2022/07/31 20:03:05;;;;;;;19.35;10.98;;;;;;;27.01;51.02;99607.78;10543461;28;20051;-66
2022/07/31 20:08:06;;;;;;;12.85;10.85;;;;;;;26.49;51.44;99525.94;10542525;28;20036;-67
2022/07/31 20:13:07;;;;;;;17.85;11.07;;;;;;;26.85;51.90;99599.81;10543119;28;20142;-67
2022/07/31 20:18:08;;;;;;;32.42;12.93;;;;;;;26.71;52.25;99604.38;10542803;28;20385;-67
2022/07/31 20:23:09;;;;;;;16.55;12.45;;;;;;;26.14;52.95;99519.03;10539560;28;20048;-68
2022/07/31 20:28:10;;;;;;;23.40;12.27;;;;;;;26.48;53.33;99589.66;10542799;28;20407;-66
2022/07/31 20:33:10;;;;;;;25.85;12.30;;;;;;;26.18;53.29;99550.03;10543436;28;20082;-67
2022/07/31 20:38:11;;;;;;;18.30;11.65;;;;;;;26.31;53.74;99603.75;10542649;28;20089;-67
2022/07/31 20:43:15;;;;;;;17.55;11.10;;;;;;;26.26;54.00;99611.16;10541908;28;20472;-67
2022/07/31 20:48:20;;;;;;;21.30;11.70;;;;;;;25.87;54.12;99574.03;10541032;28;20040;-67
2022/07/31 20:53:21;;;;;;;14.80;10.85;;;;;;;26.06;54.35;99604.06;10541759;28;20537;-67
2022/07/31 20:58:23;;;;;;;15.82;11.20;;;;;;;25.94;54.75;99607.97;10541193;28;20126;-68
2022/07/31 21:03:24;;;;;;;31.98;12.70;;;;;;;25.35;54.84;99513.06;10522147;28;20078;-67
2022/07/31 21:08:25;;;;;;;22.70;12.27;;;;;;;25.72;54.81;99574.97;10540454;28;20464;-68
2022/07/31 21:13:26;;;;;;;19.00;11.40;;;;;;;24.89;54.88;99457.16;10540462;28;20063;-67
2022/07/31 21:18:31;;;;;;;17.30;11.38;;;;;;;25.64;55.70;99597.38;10540975;28;20047;-68
2022/07/31 21:23:31;;;;;;;16.42;12.25;;;;;;;25.43;55.24;99559.47;10541033;28;20044;-67
2022/07/31 21:28:33;;;;;;;18.88;13.13;;;;;;;24.83;55.74;99480.03;10540055;28;20036;-66
2022/07/31 21:33:34;;;;;;;19.60;11.65;;;;;;;25.42;55.69;99590.44;10540510;28;20131;-66
2022/07/31 21:38:38;;;;;;;13.43;11.07;;;;;;;24.85;55.97;99517.78;10539710;28;20040;-67
2022/07/31 21:43:40;;;;;;;12.60;11.20;;;;;;;24.91;56.13;99543.81;10539526;28;20102;-66
2022/07/31 21:48:43;;;;;;;26.85;11.60;;;;;;;25.15;56.71;99593.66;10538596;28;20149;-67
2022/07/31 21:53:45;;;;;;;18.20;11.47;;;;;;;25.04;56.93;99592.91;10536917;28;20041;-67
2022/07/31 21:58:45;;;;;;;16.67;11.32;;;;;;;24.97;57.35;99588.84;10520708;28;20534;-66
2022/07/31 22:03:46;;;;;;;16.40;11.88;;;;;;;24.39;57.55;99507.97;10537937;28;20168;-67
2022/07/31 22:08:47;;;;;;;16.98;11.18;;;;;;;24.70;58.45;99575.72;10537987;28;20047;-67
2022/07/31 22:13:48;;;;;;;15.35;10.77;;;;;;;24.58;58.53;99576.84;10538502;28;20063;-67
2022/07/31 22:18:49;;;;;;;17.23;11.40;;;;;;;24.50;58.83;99580.16;10537749;28;20044;-67
2022/07/31 22:23:50;;;;;;;17.85;11.50;;;;;;;24.41;59.15;99565.53;10537576;28;20511;-67
2022/07/31 22:28:52;;;;;;;18.25;11.40;;;;;;;24.29;59.84;99579.41;10537926;28;20069;-67
2022/07/31 22:33:53;;;;;;;14.43;10.52;;;;;;;24.06;60.33;99542.03;10538378;28;20446;-67
2022/07/31 22:38:55;;;;;;;12.45;10.93;;;;;;;24.15;61.05;99572.94;10537216;28;20047;-67
2022/07/31 22:43:55;;;;;;;13.90;10.70;;;;;;;23.69;61.54;99510.63;10537242;28;20043;-67
2022/07/31 22:48:57;;;;;;;13.48;10.50;;;;;;;24.04;61.85;99584.91;10538333;28;20039;-67
2022/07/31 22:53:57;;;;;;;14.13;10.57;;;;;;;23.45;62.26;99494.16;10536867;28;20040;-67
2022/07/31 22:58:58;;;;;;;15.23;10.15;;;;;;;23.79;62.96;99553.25;10536647;28;20406;-67
2022/07/31 23:03:59;;;;;;;18.25;10.82;;;;;;;23.88;63.49;99584.13;10536635;28;20050;-67
2022/07/31 23:09:00;;;;;;;16.08;10.50;;;;;;;23.74;64.02;99561.38;10518777;28;20040;-67